x

Neah Bay, - 6nm North Of Cape Flattery, Wa (traffic Separation Lighted Buoy) (46087) Weather Station

7:20 - Mon 27th Apr 2015 All times are PDT. -7 hours from GMT.

  • Wind
    18mph, 22mph gusts
  • Sea Temp 50°f
  • Ar Temp 53°f
  • Sea Pressure 1013.5mb
  • Neah Bay, - 6nm North Of Cape Flattery, Wa     (traffic Separation Lighted Buoy)
  • Neah Bay, - 6nm North Of Cape Flattery, Wa     (traffic Separation Lighted Buoy)

More Historic Weather Station data

Upgrade to MSW Pro to gain access to the past 30 days of data for over 8000 Wavebouys and Weather Stations around the globe.

Join Pro

Comparision Forecast

View Surf forecast
   
Seg 04/27 7:20  -   -   -  18 22 mph 1013.5mb 50f 53f
6:50 4.5ft 11s 8s 13 18 mph 1014.4mb 49f 52f
6:20  -   -   -  16 20 mph 1015.1mb 49f 53f
5:50 5ft 11s 8s 13 18 mph 1015.9mb 49f 52f
5:20  -   -   -  18 20 mph 1016.4mb 49f 52f
4:50 5.5ft 11s 8s 18 22 mph 1016.9mb 49f 52f
4:20  -   -   -  18 20 mph 1017.7mb 49f 52f
3:50 5.5ft 11s 8s 20 22 mph 1018.3mb 49f 52f
3:20  -   -   -  16 18 mph 1019.3mb 49f 51f
2:50 6ft 11s 8s 11 16 mph 1020mb 49f 50f
2:20  -   -   -  11 13 mph 1020.7mb 49f 50f
1:50 6ft 10s 8s 11 16 mph 1021.1mb 49f 50f
1:20  -   -   -  13 16 mph 1021.5mb 49f 50f
12:50 6.5ft 9s 8s 11 16 mph 1021.9mb 49f 50f
12:20  -   -   -  11 13 mph 1022.1mb 49f 49f
11:50 6.5ft 8s 7s 11 16 mph 1022.4mb 49f 49f
11:20  -   -   -  11 13 mph 1022.5mb 49f 49f
10:50 6ft 10s 7s 13 16 mph 1022.7mb 49f 49f
10:20  -   -   -  16 18 mph 1022.8mb 49f 48f
9:50 5.5ft 9s 7s 18 20 mph 1023mb 49f 48f
9:20  -   -   -  18 22 mph 1022.9mb 49f 48f
8:50 4.5ft 9s 6s 18 20 mph 1022.9mb 49f 48f
8:20  -   -   -  18 20 mph 1022.9mb 49f 48f
7:50 4.5ft 8s 6s 13 18 mph 1022.9mb 49f 48f
7:20  -   -   -  16 18 mph 1022.5mb 49f 48f
6:50 4ft 7s 6s 13 16 mph 1022.7mb 49f 48f
6:20  -   -   -  13 16 mph 1022.5mb 49f 48f
5:50 3.5ft 8s 7s 16 18 mph 1022.5mb 49f 48f
5:20  -   -   -  16 18 mph 1022.7mb 50f 48f
4:50 3ft 8s 6s 16 18 mph 1022.6mb 50f 48f
4:20  -   -   -  16 18 mph 1022.7mb 50f 48f
3:50 3.5ft 8s 7s 16 18 mph 1022.8mb 50f 47f
3:20  -   -   -  16 18 mph 1022.8mb 49f 47f
2:50 3.5ft 8s 7s 13 18 mph 1022.9mb 49f 47f
2:20  -   -   -  13 16 mph 1023mb 49f 47f
1:50 4ft 8s 7s 13 16 mph 1022.9mb 49f 47f
1:20  -   -   -  13 16 mph 1023mb 48f 47f
12:50 4.5ft 8s 6s 13 16 mph 1022.7mb 48f 49f
12:20  -   -   -  13 16 mph 1022.7mb 49f 49f
Dom 04/26 11:50 4ft 8s 6s 13 16 mph 1022.6mb 49f 49f
11:20  -   -   -  11 13 mph 1022.5mb 49f 50f
10:50 5ft 8s 7s 11 16 mph 1022.5mb 49f 49f
9:50 5ft 8s 7s 9 11 mph 1022.5mb 49f 48f
9:20  -   -   -  9 11 mph 1022.8mb 49f 47f
8:50 6ft 8s 7s 9 11 mph 1022.5mb 49f 47f
8:20  -   -   -  11
mph
1022.3mb 49f 47f
7:50 5.5ft 8s 7s 11 13 mph 1022.1mb 49f 46f
7:20  -   -   -  11 13 mph 1022.1mb 49f 46f
6:50 4.5ft 7s 6s 11 13 mph 1022.4mb 49f 47f
6:20  -   -   -  11 13 mph 1022.6mb 49f 47f
5:50 4.5ft 7s 6s 13 16 mph 1022.5mb 49f 47f
5:20  -   -   -  13 16 mph 1022.8mb 49f 47f
4:50 4ft 6s 6s 9 11 mph 1022.8mb 49f 47f
4:20  -   -   -  7 9 mph 1022.7mb 49f 47f
3:50 3.5ft 7s 6s 9 11 mph 1022.7mb 49f 47f
3:20  -   -   -  11
mph
1022.6mb 49f 48f
2:50 3.5ft 7s 6s 9
mph
1022.6mb 49f 48f
2:20  -   -   -  9 11 mph 1022.6mb 49f 48f
1:50 3ft 15s 6s 13 16 mph 1022.2mb 49f 48f
1:20  -   -   -  16
mph
1022mb 49f 48f
12:50 2.5ft 9s 5s 13 16 mph 1022.3mb 49f 48f
12:20  -   -   -  16
mph
1022.3mb 49f 48f
11:50 3ft 16s 5s 13 16 mph 1022.2mb 49f 48f
11:20  -   -   -  16 18 mph 1022mb 49f 48f
10:50 2.5ft 9s 6s 16 20 mph 1021.5mb 49f 48f
10:20  -   -   -  16 18 mph 1021.3mb 49f 47f
9:50 3ft 15s 6s 16 18 mph 1021.4mb 49f 47f
9:20  -   -   -  13 16 mph 1021.3mb 49f 46f
8:50 3ft 9s 6s 16 18 mph 1020.8mb 49f 46f
8:20  -   -   -  16 18 mph 1020.2mb 49f 46f
7:50 3ft 8s 6s 13 16 mph 1020.1mb 49f 46f
7:20  -   -   -  16 18 mph 1020mb 49f 46f
6:50 3.5ft 8s 6s 13 16 mph 1019.9mb 49f 46f
6:20  -   -   -  13 18 mph 1019.4mb 49f 46f
5:50 3.5ft 8s 6s 13 18 mph 1019.4mb 49f 46f
5:20  -   -   -  16 18 mph 1019.4mb 49f 46f
4:50 3.5ft 9s 7s 16 18 mph 1019.3mb 49f 45f
4:20  -   -   -  13 18 mph 1019.1mb 49f 46f
3:50 4ft 9s 7s 16 20 mph 1019mb 49f 45f
3:20  -   -   -  16
mph
1019mb 49f 46f
2:50 4ft 9s 7s 11 13 mph 1018.9mb 49f 46f
2:20  -   -   -  13 16 mph 1018.7mb 49f 46f
1:50 4.5ft 9s 7s 13 16 mph 1018.8mb 49f 46f
1:20  -   -   -  11 16 mph 1018.9mb 49f 46f
12:50 4.5ft 8s 7s 11 13 mph 1018.6mb 49f 46f
12:20  -   -   -  7 9 mph 1018.7mb 49f 47f
Sáb 04/25 11:50 4ft 8s 7s 4
mph
1018.6mb 49f 48f
11:20  -   -   -  4 7 mph 1018.5mb 49f 48f
10:50 3.5ft 10s 7s 4
mph
1018.3mb 49f 48f
10:20  -   -   -   -  mph 1018.4mb 49f 49f
9:50 4.5ft 8s 7s 2
mph
1018.2mb 49f 49f
9:20  -   -   -   -  2 mph 1018.1mb 49f 49f
8:50 4ft 9s 7s 4
mph
1018mb 49f 49f
8:20  -   -   -  7
mph
1017.9mb 49f 49f
7:50 4.5ft 10s 7s 7 9 mph 1017.8mb 49f 49f
7:20  -   -   -  7
mph
1017.5mb 49f 50f
6:50 5ft 10s 7s 7
mph
1017.3mb 49f 50f
6:20  -   -   -  7
mph
1017.2mb 49f 50f
5:50 4.5ft 10s 7s 7 9 mph 1017.1mb 49f 50f
5:20  -   -   -  7 9 mph 1016.9mb 49f 50f
4:50 4.5ft 10s 7s 9 11 mph 1017mb 49f 49f
4:20  -   -   -  11
mph
1017.1mb 49f 49f
3:50 5ft 10s 7s 11
mph
1017.1mb 49f 49f
3:20  -   -   -  11 13 mph 1017mb 49f 49f
2:50 4.5ft 9s 7s 9 11 mph 1016.9mb 49f 49f
2:20  -   -   -  9 11 mph 1016.8mb 49f 49f
1:50 5ft 9s 7s 9 11 mph 1016.6mb 49f 48f
1:20  -   -   -  11 13 mph 1016.4mb 49f 48f
12:50 5ft 10s 8s 13 16 mph 1016.4mb 49f 48f
12:20  -   -   -  13 16 mph 1016.2mb 49f 48f
11:50 5ft 10s 7s 7 9 mph 1016mb 49f 46f
11:20  -   -   -  4 7 mph 1015.8mb 50f 46f
10:50 5.5ft 11s 7s 2 4 mph 1015.5mb 49f 46f
10:20  -   -   -  2 4 mph 1015.2mb 49f 45f
9:50 5.5ft 11s 7s 4 7 mph 1015.2mb 49f 45f
9:20  -   -   -  4 7 mph 1015mb 48f 44f
8:50 5.5ft 11s 7s 2 4 mph 1014.7mb 48f 44f
8:20  -   -   -  4
mph
1014.5mb 48f 44f
7:50 6ft 11s 7s 4 7 mph 1014.3mb 48f 45f
7:20  -   -   -  4 7 mph 1014mb 48f 44f
6:50 6ft 11s 8s 4 7 mph 1013.7mb 48f 44f
6:20  -   -   -  7
mph
1013.3mb 48f 44f
5:50 6.5ft 11s 8s 7
mph
1013.2mb 48f 44f
5:20  -   -   -  4 7 mph 1013mb 48f 44f
4:50 7ft 11s 8s 4 7 mph 1012.9mb 48f 44f
4:20  -   -   -  4 7 mph 1012.9mb 48f 45f
3:50 6ft 11s 8s 4 7 mph 1012.7mb 48f 45f
3:20  -   -   -  4 7 mph 1012.4mb 48f 46f
2:50 7.5ft 11s 9s 4 7 mph 1012.3mb 48f 46f
2:20  -   -   -  7
mph
1012.2mb 48f 46f
1:50 7ft 10s 8s 9 11 mph 1012.1mb 48f 46f
1:20  -   -   -  11 13 mph 1012.1mb 48f 46f
12:50 7.5ft 11s 9s 7 9 mph 1012mb 48f 46f
12:20  -   -   -  4 9 mph 1011.9mb 48f 47f
Sex 04/24 11:50 7.5ft 11s 8s 7 9 mph 1011.8mb 48f 47f
11:20  -   -   -  9 11 mph 1011.7mb 48f 47f
10:50 7ft 11s 8s 7 9 mph 1011.7mb 48f 47f
10:20  -   -   -  7 9 mph 1011.6mb 48f 47f
9:50 8ft 10s 8s 7 9 mph 1011.3mb 49f 47f
9:20  -   -   -  7 9 mph 1011.3mb 49f 47f
8:50 8ft 11s 8s 7 9 mph 1011.1mb 49f 47f
8:20  -   -   -  4 9 mph 1010.9mb 48f 47f
7:20  -   -   -  11 13 mph 1010.5mb 49f 48f
6:50 9ft 11s 8s 11 13 mph 1010.4mb 48f 48f
6:20  -   -   -  13 18 mph 1010.3mb 49f 48f
5:50 10ft 11s 8s 13 16 mph 1010.1mb 49f 48f
5:20  -   -   -  13 18 mph 1009.8mb 49f 48f
4:50 10.5ft 12s 8s 13 18 mph 1009.7mb 49f 48f
4:20  -   -   -  16 20 mph 1009.3mb 49f 48f
3:50 10ft 12s 8s 11 13 mph 1009mb 49f 48f
3:20  -   -   -  13 16 mph 1008.9mb 49f 48f
2:50 9ft 11s 8s 13 16 mph 1008.6mb 49f 48f
2:20  -   -   -  7 9 mph 1008.5mb 49f 48f
1:50 10.5ft 14s 9s 7 9 mph 1008.4mb 49f 48f
1:20  -   -   -  2 4 mph 1008.3mb 49f 47f
12:50 9ft 12s 10s 7 13 mph 1008.2mb 49f 46f
12:20  -   -   -  2 7 mph 1008.1mb 49f 47f
11:50 9.5ft 12s 9s 2 4 mph 1008mb 49f 47f
11:20  -   -   -  4 9 mph 1007.6mb 49f 47f
10:50 9.5ft 14s 9s 7 11 mph 1007.5mb 48f 46f
10:20  -   -   -  4 9 mph 1007.2mb 48f 46f
9:50 9.5ft 11s 9s 11 13 mph 1007mb 48f 46f
9:20  -   -   -  11 18 mph 1006.7mb 48f 45f
8:50 10ft 12s 9s 13 18 mph 1006.5mb 48f 44f
8:20  -   -   -  16 22 mph 1006.3mb 48f 43f
7:50 11.5ft 12s 10s 16 22 mph 1006.1mb 48f 43f
7:20  -   -   -  18 22 mph 1005.9mb 48f 43f
6:50 12.5ft 13s 10s 16 22 mph 1005.6mb 48f 43f
6:20  -   -   -  16 22 mph 1005.5mb 48f 43f
5:50 11ft 11s 9s 18 25 mph 1005.4mb 48f 43f
5:20  -   -   -  16 20 mph 1005.5mb 48f 43f
4:50 11.5ft 16s 9s 16 22 mph 1005.4mb 48f 43f
4:20  -   -   -  16 22 mph 1005.7mb 48f 43f
3:50 11ft 11s 8s 16 22 mph 1005.6mb 48f 43f
3:20  -   -   -  13 20 mph 1005.9mb 48f 43f